Time;durP1;ratioP1;P1;durP2;ratioP2;P2;SDS_P1;SDS_P2;PMS_P1;PMS_P2;Temp;Humidity;BMP_temperature;BMP_pressure;BME280_temperature;BME280_humidity;BME280_pressure;Samples;Min_cycle;Max_cycle;Signal;HPM_P1;HPM_P2
2023/06/09 00:01:53;;;;;;;6.88;6.10;;;16.00;99.90;;;;;;6251383;28;20050;-82
2023/06/09 00:04:56;;;;;;;9.93;5.97;;;16.00;99.90;;;;;;6250361;28;20049;-82
2023/06/09 00:07:58;;;;;;;6.50;5.90;;;16.00;99.90;;;;;;6250258;28;20053;-82
2023/06/09 00:11:00;;;;;;;6.70;5.85;;;15.90;99.90;;;;;;6251849;28;20064;-82
2023/06/09 00:14:02;;;;;;;6.80;6.05;;;15.90;99.90;;;;;;6251324;28;20049;-86
2023/06/09 00:17:08;;;;;;;9.43;6.28;;;15.90;99.90;;;;;;6254465;28;20056;-84
2023/06/09 00:20:10;;;;;;;6.47;5.88;;;15.80;99.90;;;;;;6255565;28;20111;-84
2023/06/09 00:23:13;;;;;;;6.95;5.93;;;15.70;99.90;;;;;;6253332;28;20045;-81
2023/06/09 00:26:15;;;;;;;11.68;6.63;;;15.60;99.90;;;;;;6248945;28;20049;-85
2023/06/09 00:29:18;;;;;;;7.85;6.60;;;15.60;99.90;;;;;;6246196;28;20045;-83
2023/06/09 00:32:22;;;;;;;7.30;6.60;;;15.50;99.90;;;;;;6245228;28;20097;-81
2023/06/09 00:35:23;;;;;;;6.88;6.18;;;15.40;99.90;;;;;;6244458;28;20049;-81
2023/06/09 00:38:25;;;;;;;7.95;7.25;;;15.40;99.90;;;;;;6245436;28;20041;-83
2023/06/09 00:41:27;;;;;;;7.18;6.53;;;15.40;99.90;;;;;;6250137;28;20045;-83
2023/06/09 00:44:28;;;;;;;7.72;6.25;;;15.40;99.90;;;;;;6248768;28;20064;-82
2023/06/09 00:47:32;;;;;;;7.75;6.70;;;15.40;99.90;;;;;;6250102;28;20492;-82
2023/06/09 00:50:34;;;;;;;9.73;7.47;;;15.40;99.90;;;;;;6248110;28;20056;-83
2023/06/09 00:53:36;;;;;;;9.73;8.82;;;15.30;99.90;;;;;;6248938;28;20052;-84
2023/06/09 00:56:39;;;;;;;7.07;6.47;;;15.30;99.90;;;;;;6249217;28;20050;-82
2023/06/09 00:59:41;;;;;;;8.48;7.60;;;15.20;99.90;;;;;;6249497;28;20033;-83
2023/06/09 01:02:44;;;;;;;7.05;6.35;;;15.20;99.90;;;;;;6251502;28;20060;-83
2023/06/09 01:05:48;;;;;;;6.88;6.25;;;15.20;99.90;;;;;;6248487;28;20049;-82
2023/06/09 01:08:56;;;;;;;9.20;7.22;;;15.20;99.90;;;;;;6244744;28;20053;-83
2023/06/09 01:12:08;;;;;;;8.88;6.88;;;15.20;99.90;;;;;;6245175;28;20065;-82
2023/06/09 01:15:17;;;;;;;7.53;6.15;;;15.20;99.90;;;;;;6244033;28;20065;-81
2023/06/09 01:18:24;;;;;;;8.95;7.05;;;15.10;99.90;;;;;;6246373;28;22909;-83
2023/06/09 01:21:32;;;;;;;6.72;6.03;;;15.10;99.90;;;;;;6246848;28;20088;-82
2023/06/09 01:24:45;;;;;;;6.90;6.20;;;15.10;99.90;;;;;;6245871;28;20058;-79
2023/06/09 01:27:50;;;;;;;8.70;7.32;;;15.20;99.90;;;;;;6243883;28;20420;-82
2023/06/09 01:30:54;;;;;;;9.13;8.23;;;15.10;99.90;;;;;;6244905;28;20049;-82
2023/06/09 01:33:56;;;;;;;9.45;6.97;;;15.10;99.90;;;;;;6246522;28;20058;-82
2023/06/09 01:36:58;;;;;;;8.13;7.25;;;15.10;99.90;;;;;;6244143;28;20056;-82
2023/06/09 01:40:00;;;;;;;17.63;7.80;;;15.10;99.90;;;;;;6241861;28;20064;-82
2023/06/09 01:43:05;;;;;;;8.73;7.93;;;15.10;99.90;;;;;;6222481;28;20489;-81
2023/06/09 01:46:07;;;;;;;8.43;7.53;;;15.10;99.90;;;;;;6229307;28;20052;-81
2023/06/09 01:49:14;;;;;;;10.55;7.05;;;15.00;99.90;;;;;;6242888;28;20060;-80
2023/06/09 01:52:21;;;;;;;10.98;7.75;;;15.00;99.90;;;;;;6242697;28;20057;-81
2023/06/09 01:55:28;;;;;;;10.98;8.82;;;15.00;99.90;;;;;;6226862;28;20058;-81
2023/06/09 01:58:37;;;;;;;6.97;6.37;;;14.90;99.90;;;;;;6220490;28;20057;-82
2023/06/09 02:01:40;;;;;;;8.90;7.45;;;14.90;99.90;;;;;;6220448;28;20042;-82
2023/06/09 02:04:43;;;;;;;10.15;8.60;;;14.90;99.90;;;;;;6221205;28;20050;-82
2023/06/09 02:07:46;;;;;;;8.90;8.10;;;14.80;99.90;;;;;;6223588;28;20521;-81
2023/06/09 02:10:48;;;;;;;8.38;7.47;;;14.80;99.90;;;;;;6226352;28;20049;-82
2023/06/09 02:13:54;;;;;;;8.80;7.70;;;14.80;99.90;;;;;;6227663;28;20042;-82
2023/06/09 02:16:56;;;;;;;11.00;8.48;;;14.80;99.90;;;;;;6232466;28;20057;-82
2023/06/09 02:19:58;;;;;;;9.65;7.88;;;14.80;99.90;;;;;;6229909;28;20050;-83
2023/06/09 02:22:59;;;;;;;10.60;7.40;;;14.70;99.90;;;;;;6227174;28;20056;-82
2023/06/09 02:26:01;;;;;;;11.25;8.25;;;14.70;99.90;;;;;;6229489;28;20046;-83
2023/06/09 02:29:05;;;;;;;9.75;8.38;;;14.70;99.90;;;;;;6228319;28;20046;-82
2023/06/09 02:32:07;;;;;;;8.57;7.75;;;14.80;99.90;;;;;;6229230;28;20451;-81
2023/06/09 02:35:09;;;;;;;8.23;7.43;;;14.80;99.90;;;;;;6228319;28;20396;-83
2023/06/09 02:38:11;;;;;;;8.27;7.47;;;14.70;99.90;;;;;;6208105;28;20042;-81
2023/06/09 02:41:13;;;;;;;8.95;8.00;;;14.70;99.90;;;;;;6199659;28;20416;-82
2023/06/09 02:44:16;;;;;;;9.15;7.78;;;14.80;99.90;;;;;;6201593;28;20050;-80
2023/06/09 02:47:18;;;;;;;8.93;8.02;;;14.70;99.90;;;;;;6203181;28;20077;-82
2023/06/09 02:50:20;;;;;;;9.55;8.55;;;14.80;99.90;;;;;;6201631;28;20073;-82
2023/06/09 02:53:21;;;;;;;11.15;8.88;;;14.70;99.90;;;;;;6202724;28;20381;-81
2023/06/09 02:56:23;;;;;;;8.75;7.75;;;14.60;99.90;;;;;;6202540;28;20056;-82
2023/06/09 02:59:26;;;;;;;9.82;8.82;;;14.60;99.90;;;;;;6202777;28;20054;-82
2023/06/09 03:02:28;;;;;;;9.98;7.70;;;14.50;99.90;;;;;;6202804;28;20050;-82
2023/06/09 03:05:29;;;;;;;9.90;8.65;;;14.50;99.90;;;;;;6202208;28;20050;-82
2023/06/09 03:08:31;;;;;;;9.82;8.25;;;14.50;99.90;;;;;;6204382;28;20050;-83
2023/06/09 03:11:33;;;;;;;10.75;9.13;;;14.40;99.90;;;;;;6202315;28;20513;-81
2023/06/09 03:14:36;;;;;;;9.13;8.20;;;14.40;99.90;;;;;;6204289;28;20050;-82
2023/06/09 03:17:41;;;;;;;10.38;9.27;;;14.40;99.90;;;;;;6202570;28;20520;-81
2023/06/09 03:20:43;;;;;;;12.55;10.80;;;14.40;99.90;;;;;;6203713;28;20053;-80
2023/06/09 03:23:44;;;;;;;10.75;9.13;;;14.30;99.90;;;;;;6203272;28;20042;-81
2023/06/09 03:26:46;;;;;;;10.02;8.90;;;14.30;99.90;;;;;;6204521;28;20050;-82
2023/06/09 03:29:49;;;;;;;11.63;8.98;;;14.30;99.90;;;;;;6227007;28;20394;-83
2023/06/09 03:32:51;;;;;;;10.43;9.32;;;14.30;99.90;;;;;;6229855;28;20057;-81
2023/06/09 03:35:53;;;;;;;12.00;9.60;;;14.30;99.90;;;;;;6229068;28;20046;-81
2023/06/09 03:38:56;;;;;;;14.50;9.15;;;14.30;99.90;;;;;;6230036;28;20065;-81
2023/06/09 03:41:57;;;;;;;10.88;9.13;;;14.30;99.90;;;;;;6229453;28;20053;-81
2023/06/09 03:45:00;;;;;;;12.90;9.57;;;14.30;99.90;;;;;;6229587;28;20146;-82
2023/06/09 03:48:04;;;;;;;15.98;9.30;;;14.30;99.90;;;;;;6229080;28;20053;-80
2023/06/09 03:51:06;;;;;;;13.88;9.45;;;14.40;99.90;;;;;;6228560;28;20056;-81
2023/06/09 03:54:08;;;;;;;13.35;9.63;;;14.40;99.90;;;;;;6228579;28;20056;-81
2023/06/09 03:57:10;;;;;;;11.52;8.98;;;14.50;99.90;;;;;;6228487;28;20053;-81
2023/06/09 04:00:15;;;;;;;11.02;9.13;;;14.60;99.90;;;;;;6228607;28;20049;-80
2023/06/09 04:03:17;;;;;;;9.63;8.73;;;14.60;99.90;;;;;;6231624;28;20123;-81
2023/06/09 04:06:18;;;;;;;9.20;8.20;;;14.70;99.90;;;;;;6232182;28;20128;-81
2023/06/09 04:09:20;;;;;;;9.98;8.82;;;14.80;99.90;;;;;;6232736;28;20042;-81
2023/06/09 04:12:22;;;;;;;11.50;8.55;;;14.90;99.90;;;;;;6231973;28;20049;-79
2023/06/09 04:15:25;;;;;;;10.95;8.52;;;15.00;99.90;;;;;;6229865;28;20041;-81
2023/06/09 04:18:27;;;;;;;10.52;9.38;;;15.20;99.90;;;;;;6229566;28;20045;-81
2023/06/09 04:21:28;;;;;;;10.73;8.70;;;15.70;99.90;;;;;;6229847;28;20095;-79
2023/06/09 04:24:30;;;;;;;8.38;7.57;;;16.30;99.90;;;;;;6230228;28;20050;-81
2023/06/09 04:27:32;;;;;;;8.07;6.85;;;17.00;99.90;;;;;;6229749;28;20057;-82
2023/06/09 04:30:36;;;;;;;8.13;7.30;;;17.50;99.90;;;;;;6229325;28;20052;-82
2023/06/09 04:33:39;;;;;;;11.35;7.47;;;17.70;99.90;;;;;;6229541;28;20456;-82
2023/06/09 04:36:41;;;;;;;8.13;7.20;;;18.10;99.90;;;;;;6231668;28;20053;-79
2023/06/09 04:39:45;;;;;;;7.95;7.07;;;18.60;99.90;;;;;;6231553;28;20418;-81
2023/06/09 04:42:50;;;;;;;13.43;7.90;;;19.10;99.90;;;;;;6231613;28;20041;-80
2023/06/09 04:45:55;;;;;;;8.20;7.18;;;19.60;99.90;;;;;;6232331;28;20046;-81
2023/06/09 04:48:56;;;;;;;8.25;7.45;;;20.10;99.90;;;;;;6231558;28;20054;-82
2023/06/09 04:51:59;;;;;;;8.77;7.78;;;20.40;99.90;;;;;;6232119;28;20045;-81
2023/06/09 04:55:01;;;;;;;7.57;6.78;;;20.80;99.90;;;;;;6233436;28;20042;-81
2023/06/09 04:58:03;;;;;;;8.65;7.43;;;21.10;99.90;;;;;;6230994;28;20049;-81
2023/06/09 05:01:06;;;;;;;7.85;5.75;;;21.90;99.00;;;;;;6231196;28;20057;-81
2023/06/09 05:04:08;;;;;;;8.65;6.00;;;22.60;97.30;;;;;;6231477;28;20152;-81
2023/06/09 05:07:09;;;;;;;8.40;6.82;;;23.30;95.70;;;;;;6230331;28;20046;-81
2023/06/09 05:10:11;;;;;;;6.35;5.75;;;23.70;93.90;;;;;;6230215;28;20045;-81
2023/06/09 05:13:13;;;;;;;7.07;6.47;;;24.00;92.30;;;;;;6228638;28;20041;-80
2023/06/09 05:16:16;;;;;;;6.95;6.25;;;24.10;91.70;;;;;;6229398;28;20109;-81
2023/06/09 05:19:18;;;;;;;9.45;7.10;;;24.50;90.80;;;;;;6230720;28;20057;-82
2023/06/09 05:22:19;;;;;;;7.10;6.38;;;24.80;90.20;;;;;;6233273;28;20060;-82
2023/06/09 05:25:22;;;;;;;8.90;6.35;;;25.50;88.40;;;;;;6229409;28;20042;-82
2023/06/09 05:28:23;;;;;;;7.47;6.78;;;26.30;85.30;;;;;;6230023;28;20057;-81
2023/06/09 05:31:26;;;;;;;9.05;6.68;;;27.00;81.80;;;;;;6228809;28;20038;-78
2023/06/09 05:34:29;;;;;;;9.55;6.32;;;27.60;78.00;;;;;;6228258;28;20053;-81
2023/06/09 05:37:31;;;;;;;7.45;6.75;;;27.60;74.90;;;;;;6227860;28;20049;-80
2023/06/09 05:40:33;;;;;;;6.40;5.90;;;27.30;73.80;;;;;;6228257;28;20054;-82
2023/06/09 05:43:35;;;;;;;10.52;6.40;;;27.60;73.20;;;;;;6227402;28;20046;-79
2023/06/09 05:46:39;;;;;;;8.93;6.22;;;27.70;71.50;;;;;;6228140;28;20053;-79
2023/06/09 05:49:41;;;;;;;8.30;6.60;;;27.90;69.80;;;;;;6231791;28;20046;-79
2023/06/09 05:52:42;;;;;;;7.32;5.95;;;27.70;68.60;;;;;;6231045;28;20412;-80
2023/06/09 05:55:44;;;;;;;8.55;6.90;;;27.70;67.80;;;;;;6228225;28;20045;-81
2023/06/09 05:58:46;;;;;;;7.43;6.72;;;27.50;67.70;;;;;;6228051;28;20046;-80
2023/06/09 06:01:49;;;;;;;8.32;5.70;;;27.50;67.20;;;;;;6229153;28;20045;-80
2023/06/09 06:04:51;;;;;;;8.52;7.25;;;27.40;67.30;;;;;;6227928;28;20157;-80
2023/06/09 06:07:53;;;;;;;8.10;6.43;;;27.30;66.70;;;;;;6227773;28;20046;-80
2023/06/09 06:10:55;;;;;;;6.65;6.05;;;27.30;67.30;;;;;;6227364;28;20436;-80
2023/06/09 06:13:56;;;;;;;7.55;6.25;;;27.80;66.50;;;;;;6228028;28;20052;-81
2023/06/09 06:16:59;;;;;;;6.68;6.13;;;28.00;65.70;;;;;;6227076;28;20121;-81
2023/06/09 06:20:01;;;;;;;10.60;7.75;;;28.10;65.00;;;;;;6227761;28;20042;-81
2023/06/09 06:23:03;;;;;;;9.07;6.25;;;28.10;64.30;;;;;;6227578;28;20053;-81
2023/06/09 06:26:05;;;;;;;10.05;6.93;;;27.70;64.30;;;;;;6227103;28;20086;-81
2023/06/09 06:29:07;;;;;;;9.73;7.30;;;27.60;64.30;;;;;;6227649;28;20068;-81
2023/06/09 06:32:11;;;;;;;7.82;7.03;;;27.50;64.10;;;;;;6228337;28;20049;-81
2023/06/09 06:35:12;;;;;;;8.43;6.70;;;27.40;64.90;;;;;;6226736;28;20081;-80
2023/06/09 06:38:15;;;;;;;7.63;6.45;;;27.40;64.40;;;;;;6227393;28;20050;-80
2023/06/09 06:41:16;;;;;;;7.32;6.60;;;27.30;64.60;;;;;;6224017;28;20579;-79
2023/06/09 06:44:18;;;;;;;8.10;6.30;;;27.40;64.80;;;;;;6227851;28;20057;-79
2023/06/09 06:47:21;;;;;;;14.63;6.85;;;27.90;64.50;;;;;;6227147;28;20052;-79
2023/06/09 06:50:23;;;;;;;8.10;6.28;;;28.60;63.20;;;;;;6226849;28;20049;-79
2023/06/09 06:53:25;;;;;;;10.20;6.88;;;29.10;61.80;;;;;;6225470;28;20042;-81
2023/06/09 06:56:27;;;;;;;6.25;5.68;;;29.00;62.00;;;;;;6217997;28;20537;-78
2023/06/09 06:59:29;;;;;;;8.73;6.45;;;29.40;61.30;;;;;;6223571;28;20049;-79
2023/06/09 07:02:32;;;;;;;8.70;6.63;;;29.50;60.30;;;;;;6220430;28;20050;-77
2023/06/09 07:05:33;;;;;;;7.35;6.70;;;29.00;60.50;;;;;;6222092;28;20045;-76
2023/06/09 07:08:35;;;;;;;7.28;6.65;;;28.10;60.90;;;;;;6217503;28;20058;-77
2023/06/09 07:11:42;;;;;;;16.75;6.82;;;26.80;63.00;;;;;;6210831;28;20061;-77
2023/06/09 07:14:43;;;;;;;11.57;7.03;;;26.00;65.30;;;;;;6216559;28;20058;-80
2023/06/09 07:17:47;;;;;;;9.63;6.20;;;25.50;66.60;;;;;;6214478;28;20519;-77
2023/06/09 07:20:49;;;;;;;6.82;6.03;;;25.20;67.80;;;;;;6214202;28;20160;-79
2023/06/09 07:23:50;;;;;;;6.35;5.75;;;25.00;68.80;;;;;;6213307;28;20054;-80
2023/06/09 07:26:53;;;;;;;8.90;6.65;;;24.80;70.00;;;;;;6213515;28;20054;-80
2023/06/09 07:29:55;;;;;;;7.75;7.03;;;24.70;70.50;;;;;;6218552;28;20104;-78
2023/06/09 07:32:58;;;;;;;14.50;6.50;;;24.50;70.80;;;;;;6216902;28;20161;-78
2023/06/09 07:36:00;;;;;;;6.80;6.10;;;24.50;71.90;;;;;;6220808;28;20056;-77
2023/06/09 07:39:03;;;;;;;7.00;6.32;;;24.50;72.10;;;;;;6235939;28;20049;-79
2023/06/09 07:42:06;;;;;;;7.55;6.85;;;24.50;72.60;;;;;;6240503;28;20489;-79
2023/06/09 07:45:10;;;;;;;6.93;6.18;;;24.60;73.10;;;;;;6239821;28;20051;-78
2023/06/09 07:48:13;;;;;;;6.85;5.88;;;24.70;73.10;;;;;;6242090;28;20055;-78
2023/06/09 07:51:16;;;;;;;8.98;6.70;;;24.70;73.10;;;;;;6247514;28;20155;-77
2023/06/09 07:54:19;;;;;;;12.00;5.57;;;24.60;73.20;;;;;;6246283;28;20046;-78
2023/06/09 07:57:21;;;;;;;7.50;6.80;;;24.70;73.60;;;;;;6241344;28;20037;-77
2023/06/09 08:00:23;;;;;;;7.80;6.28;;;24.70;73.60;;;;;;6242706;28;20038;-77
2023/06/09 08:03:28;;;;;;;6.80;6.20;;;24.80;73.50;;;;;;6242900;28;20037;-78
2023/06/09 08:06:30;;;;;;;6.40;5.80;;;24.90;73.50;;;;;;6244641;28;20136;-80
2023/06/09 08:09:32;;;;;;;7.38;6.15;;;25.10;73.30;;;;;;6244146;28;20056;-80
2023/06/09 08:12:34;;;;;;;5.63;5.13;;;25.30;72.70;;;;;;6242467;28;20072;-81
2023/06/09 08:15:36;;;;;;;5.30;4.70;;;25.40;72.80;;;;;;6245000;28;20050;-77
2023/06/09 08:18:39;;;;;;;7.10;6.40;;;25.50;72.30;;;;;;6241856;28;20045;-78
2023/06/09 08:21:43;;;;;;;6.82;6.18;;;25.70;71.60;;;;;;6241423;28;20385;-77
2023/06/09 08:24:46;;;;;;;8.70;5.50;;;25.80;71.10;;;;;;6242980;28;20050;-77
2023/06/09 08:27:48;;;;;;;5.47;4.85;;;26.00;70.80;;;;;;6219595;28;20119;-77
2023/06/09 08:30:49;;;;;;;5.75;5.22;;;26.10;70.90;;;;;;6218633;28;20053;-78
2023/06/09 08:33:53;;;;;;;5.90;5.40;;;26.30;70.50;;;;;;6218212;28;20041;-79
2023/06/09 08:36:56;;;;;;;6.63;5.50;;;26.30;70.40;;;;;;6215089;28;20073;-78
2023/06/09 08:40:00;;;;;;;5.68;5.05;;;26.30;70.10;;;;;;6217094;28;20056;-78
2023/06/09 08:43:04;;;;;;;6.00;5.40;;;26.40;70.70;;;;;;6214637;28;20062;-78
2023/06/09 08:46:10;;;;;;;6.65;5.93;;;26.60;70.00;;;;;;6215145;28;20050;-79
2023/06/09 08:49:14;;;;;;;5.55;4.72;;;26.70;69.60;;;;;;6215370;28;20068;-79
2023/06/09 08:52:16;;;;;;;6.10;5.45;;;26.80;69.10;;;;;;6220787;28;20045;-80
2023/06/09 08:55:18;;;;;;;6.13;5.03;;;26.90;68.40;;;;;;6218192;28;20046;-78
2023/06/09 08:58:21;;;;;;;6.88;5.50;;;27.00;68.00;;;;;;6218504;28;20054;-78
2023/06/09 09:01:24;;;;;;;5.22;4.55;;;26.90;67.20;;;;;;6219856;28;20054;-78
2023/06/09 09:04:27;;;;;;;5.53;4.40;;;26.80;67.40;;;;;;6218969;28;20498;-79
2023/06/09 09:07:29;;;;;;;6.28;4.68;;;26.90;67.50;;;;;;6222269;28;20037;-80
2023/06/09 09:10:31;;;;;;;6.28;4.57;;;27.10;66.80;;;;;;6218188;28;20164;-79
2023/06/09 09:13:33;;;;;;;8.02;4.75;;;27.30;66.40;;;;;;6219282;28;20583;-78
2023/06/09 09:16:35;;;;;;;5.15;4.40;;;27.40;66.00;;;;;;6236002;28;20063;-79
2023/06/09 09:19:43;;;;;;;5.70;4.40;;;27.60;65.00;;;;;;6234567;28;20045;-77
2023/06/09 09:22:46;;;;;;;7.85;5.13;;;27.70;64.30;;;;;;6245404;28;20045;-77
2023/06/09 09:25:50;;;;;;;6.72;4.05;;;27.80;63.80;;;;;;6239804;28;20053;-79
2023/06/09 09:28:54;;;;;;;5.40;3.53;;;28.10;63.20;;;;;;6238053;28;20516;-78
2023/06/09 09:31:58;;;;;;;5.50;4.13;;;28.30;62.70;;;;;;6243030;28;20065;-80
2023/06/09 09:35:02;;;;;;;3.58;3.28;;;28.40;61.80;;;;;;6241896;28;20045;-79
2023/06/09 09:38:04;;;;;;;4.88;4.45;;;28.50;61.00;;;;;;6241299;28;20064;-80
2023/06/09 09:41:06;;;;;;;4.03;3.67;;;28.40;60.50;;;;;;6239045;28;20046;-79
2023/06/09 09:44:07;;;;;;;4.28;3.92;;;28.40;60.50;;;;;;6238796;28;20053;-78
2023/06/09 09:47:12;;;;;;;4.18;3.85;;;28.60;60.40;;;;;;6236163;28;20041;-77
2023/06/09 09:50:23;;;;;;;3.60;3.30;;;28.70;59.70;;;;;;6234291;28;20527;-78
2023/06/09 09:53:26;;;;;;;4.32;3.92;;;28.80;59.50;;;;;;6235062;28;20061;-78
2023/06/09 09:56:28;;;;;;;4.82;3.58;;;28.90;58.90;;;;;;6239739;28;20053;-80
2023/06/09 09:59:30;;;;;;;6.68;3.17;;;28.90;57.90;;;;;;6237647;28;20130;-79
2023/06/09 10:02:34;;;;;;;3.25;2.95;;;28.70;57.70;;;;;;6238605;28;20046;-79
2023/06/09 10:05:40;;;;;;;3.95;3.55;;;28.70;57.70;;;;;;6248968;28;20037;-79
2023/06/09 10:08:42;;;;;;;4.55;3.90;;;28.80;57.60;;;;;;6248359;28;20051;-79
2023/06/09 10:11:44;;;;;;;4.22;3.38;;;28.90;57.30;;;;;;6247981;28;20042;-80
2023/06/09 10:14:47;;;;;;;5.72;3.47;;;28.90;57.30;;;;;;6248761;28;20049;-79
2023/06/09 10:17:49;;;;;;;3.67;3.38;;;29.00;57.30;;;;;;6248612;28;20071;-79
2023/06/09 10:20:54;;;;;;;5.60;3.80;;;29.10;56.80;;;;;;6248788;28;20052;-79
2023/06/09 10:23:57;;;;;;;3.72;3.42;;;29.20;56.40;;;;;;6248954;28;20140;-78
2023/06/09 10:26:59;;;;;;;3.75;3.05;;;29.30;55.40;;;;;;6248720;28;20127;-78
2023/06/09 10:30:01;;;;;;;3.40;3.10;;;29.40;55.20;;;;;;6248235;28;20045;-80
2023/06/09 10:33:10;;;;;;;3.45;3.22;;;29.20;54.80;;;;;;6228851;28;20475;-79
2023/06/09 10:36:14;;;;;;;3.90;3.33;;;29.30;54.90;;;;;;6224085;28;20050;-80
2023/06/09 10:39:18;;;;;;;4.10;3.60;;;29.50;54.50;;;;;;6224512;28;20046;-80
2023/06/09 10:42:27;;;;;;;3.65;3.10;;;29.70;54.20;;;;;;6224624;28;20046;-80
2023/06/09 10:45:49;;;;;;;4.15;3.20;;;29.90;53.40;;;;;;6224702;28;20046;-80
2023/06/09 10:48:50;;;;;;;7.05;3.17;;;30.10;52.80;;;;;;6245283;28;20103;-80
2023/06/09 10:51:54;;;;;;;3.50;3.20;;;30.30;52.20;;;;;;6248910;28;20045;-80
2023/06/09 10:55:11;;;;;;;3.50;3.20;;;30.50;52.00;;;;;;6248609;28;20100;-80
2023/06/09 10:58:36;;;;;;;3.53;3.22;;;30.90;51.20;;;;;;6248714;28;20045;-80
2023/06/09 11:02:20;;;;;;;4.15;3.75;;;31.10;50.40;;;;;;6239817;28;20091;-80
2023/06/09 11:05:40;;;;;;;4.47;3.42;;;31.20;50.20;;;;;;6240464;28;20049;-79
2023/06/09 11:09:08;;;;;;;4.53;3.40;;;31.40;50.20;;;;;;6249101;28;20049;-78
2023/06/09 11:12:22;;;;;;;5.05;4.13;;;31.50;49.90;;;;;;6247118;28;20053;-79
2023/06/09 11:15:45;;;;;;;5.55;3.05;;;31.80;49.60;;;;;;6248009;28;20451;-78
2023/06/09 11:18:46;;;;;;;3.67;3.38;;;31.60;49.50;;;;;;6247337;28;20056;-77
2023/06/09 11:22:03;;;;;;;3.65;3.35;;;31.60;50.00;;;;;;6247520;28;20434;-79
2023/06/09 11:25:07;;;;;;;3.75;3.40;;;31.60;49.00;;;;;;6247608;28;20053;-78
2023/06/09 11:28:20;;;;;;;4.07;3.40;;;31.60;48.90;;;;;;6247671;28;20055;-81
2023/06/09 11:31:21;;;;;;;2.90;2.70;;;31.70;48.50;;;;;;6231499;28;20048;-79
2023/06/09 11:35:04;;;;;;;3.60;3.25;;;31.70;47.70;;;;;;6249863;28;20099;-78
2023/06/09 11:38:08;;;;;;;3.08;2.78;;;31.50;46.60;;;;;;6232364;28;20103;-79
2023/06/09 11:41:12;;;;;;;3.55;2.95;;;31.30;47.30;;;;;;6238635;28;20061;-80
2023/06/09 11:44:14;;;;;;;3.33;2.95;;;31.40;47.20;;;;;;6239258;28;20050;-78
2023/06/09 11:47:26;;;;;;;4.00;3.70;;;31.60;47.80;;;;;;6244961;28;20077;-81
2023/06/09 11:50:36;;;;;;;4.38;3.33;;;31.70;47.20;;;;;;6245021;28;20056;-80
2023/06/09 11:53:38;;;;;;;4.00;3.47;;;31.50;47.50;;;;;;6249398;28;20040;-80
2023/06/09 11:56:42;;;;;;;3.63;3.33;;;31.70;47.20;;;;;;6249762;28;20156;-80
2023/06/09 11:59:45;;;;;;;3.90;3.55;;;31.40;46.80;;;;;;6250137;28;20049;-81
2023/06/09 12:02:48;;;;;;;3.83;3.53;;;31.70;47.10;;;;;;6249063;28;20091;-79
2023/06/09 12:05:51;;;;;;;3.78;2.95;;;32.00;47.00;;;;;;6249310;28;20068;-80
2023/06/09 12:08:52;;;;;;;3.97;3.67;;;32.30;46.00;;;;;;6241697;28;20049;-80
2023/06/09 12:11:55;;;;;;;3.90;3.60;;;32.30;46.40;;;;;;6246712;28;20049;-80
2023/06/09 12:14:57;;;;;;;4.20;3.17;;;32.20;47.00;;;;;;6247499;28;20049;-80
2023/06/09 12:18:01;;;;;;;3.85;3.55;;;32.40;46.70;;;;;;6245538;28;20045;-79
2023/06/09 12:21:03;;;;;;;7.10;3.15;;;32.30;45.40;;;;;;6243760;28;20041;-80
2023/06/09 12:24:05;;;;;;;6.00;3.28;;;32.30;45.80;;;;;;6245572;28;20050;-79
2023/06/09 12:27:13;;;;;;;5.18;3.67;;;32.50;45.40;;;;;;6244339;28;20053;-80
2023/06/09 12:30:29;;;;;;;;;;;32.30;45.10;;;;;;6238668;28;20056;-79
2023/06/09 12:33:31;;;;;;;3.60;3.30;;;32.00;46.00;;;;;;6226214;28;19936;-80
2023/06/09 12:36:40;;;;;;;4.40;3.00;;;32.50;45.90;;;;;;6217947;28;20070;-81
2023/06/09 12:39:42;;;;;;;3.17;2.90;;;32.90;44.30;;;;;;6215667;28;20175;-81
2023/06/09 12:42:48;;;;;;;3.88;3.55;;;32.90;43.60;;;;;;6222005;28;20046;-80
2023/06/09 12:45:54;;;;;;;3.63;3.33;;;33.00;42.70;;;;;;6231350;28;20041;-81
2023/06/09 12:48:57;;;;;;;3.65;3.17;;;33.20;42.30;;;;;;6250285;28;20080;-82
2023/06/09 12:51:59;;;;;;;4.05;2.78;;;33.50;42.00;;;;;;6223100;28;20045;-81
2023/06/09 12:55:01;;;;;;;3.30;3.00;;;33.50;41.80;;;;;;6226705;28;20057;-83
2023/06/09 12:58:05;;;;;;;6.25;3.72;;;33.20;41.60;;;;;;6223195;28;20117;-81
2023/06/09 13:01:07;;;;;;;4.05;3.65;;;33.00;42.40;;;;;;6223989;28;20179;-81
2023/06/09 13:04:09;;;;;;;3.80;3.50;;;32.90;42.90;;;;;;6237457;28;20050;-80
2023/06/09 13:07:10;;;;;;;5.30;3.38;;;32.90;43.70;;;;;;6237142;28;20053;-81
2023/06/09 13:10:12;;;;;;;3.50;3.05;;;33.10;43.00;;;;;;6237548;28;20057;-80
2023/06/09 13:13:15;;;;;;;3.65;3.25;;;33.00;42.50;;;;;;6242237;28;20135;-82
2023/06/09 13:16:17;;;;;;;3.35;3.05;;;32.70;42.20;;;;;;6243533;28;20053;-80
2023/06/09 13:19:18;;;;;;;4.85;3.70;;;32.40;42.50;;;;;;6241607;28;20049;-80
2023/06/09 13:22:20;;;;;;;4.43;3.15;;;32.20;42.30;;;;;;6241837;28;20385;-81
2023/06/09 13:25:22;;;;;;;4.10;3.42;;;32.50;42.30;;;;;;6242394;28;20048;-79
2023/06/09 13:28:25;;;;;;;2.83;2.42;;;32.40;42.10;;;;;;6238293;28;20046;-79
2023/06/09 13:31:26;;;;;;;3.67;3.38;;;32.80;41.90;;;;;;6234666;28;20467;-81
2023/06/09 13:34:28;;;;;;;5.72;2.95;;;32.90;41.30;;;;;;6237498;28;20049;-83
2023/06/09 13:37:30;;;;;;;5.38;2.35;;;32.70;41.30;;;;;;6236839;28;20057;-81
2023/06/09 13:40:32;;;;;;;4.10;3.15;;;32.50;41.80;;;;;;6238739;28;20041;-82
2023/06/09 13:43:35;;;;;;;4.85;3.17;;;32.20;42.60;;;;;;6242696;28;20048;-82
2023/06/09 13:46:37;;;;;;;4.40;3.20;;;32.00;43.00;;;;;;6241870;28;21605;-80
2023/06/09 13:49:39;;;;;;;6.50;3.13;;;32.20;43.40;;;;;;6242735;28;20053;-83
2023/06/09 13:52:42;;;;;;;3.97;2.90;;;32.40;43.30;;;;;;6238586;28;20061;-82
2023/06/09 13:55:44;;;;;;;6.95;3.15;;;32.30;43.10;;;;;;6240724;28;20463;-81
2023/06/09 13:58:47;;;;;;;4.60;2.78;;;32.00;43.30;;;;;;6240531;28;20041;-83
2023/06/09 14:01:49;;;;;;;3.22;2.97;;;31.90;43.70;;;;;;6239414;28;20057;-83
2023/06/09 14:04:50;;;;;;;5.15;2.35;;;32.40;43.20;;;;;;6240498;28;20076;-82
2023/06/09 14:07:52;;;;;;;3.67;3.38;;;32.60;42.80;;;;;;6238204;28;20050;-80
2023/06/09 14:10:54;;;;;;;2.80;2.50;;;32.90;42.60;;;;;;6235454;28;20784;-82
2023/06/09 14:13:57;;;;;;;5.15;3.00;;;33.00;42.70;;;;;;6236190;28;20049;-81
2023/06/09 14:16:59;;;;;;;6.15;3.00;;;33.10;42.80;;;;;;6238786;28;20052;-78
2023/06/09 14:20:00;;;;;;;4.35;3.72;;;33.20;43.00;;;;;;6241434;28;20048;-79
2023/06/09 14:23:08;;;;;;;3.22;2.75;;;33.50;43.00;;;;;;6251774;28;20042;-82
2023/06/09 14:26:12;;;;;;;6.53;3.22;;;33.50;42.90;;;;;;6250701;28;20060;-82
2023/06/09 14:29:15;;;;;;;3.90;3.17;;;33.30;42.70;;;;;;6252933;28;20411;-83
2023/06/09 14:32:17;;;;;;;2.83;2.63;;;32.90;42.90;;;;;;6252700;28;20050;-81
2023/06/09 14:35:23;;;;;;;6.50;3.80;;;33.00;43.30;;;;;;6247803;28;20577;-79
2023/06/09 14:38:25;;;;;;;3.67;2.53;;;33.00;42.60;;;;;;6248232;28;20037;-79
2023/06/09 14:41:26;;;;;;;3.40;3.10;;;32.80;43.10;;;;;;6244366;28;20194;-80
2023/06/09 14:44:29;;;;;;;4.53;3.22;;;32.70;42.50;;;;;;6252896;28;20053;-81
2023/06/09 14:47:31;;;;;;;3.80;2.92;;;32.20;42.90;;;;;;6246757;28;20188;-82
2023/06/09 14:50:36;;;;;;;4.00;2.85;;;32.10;43.30;;;;;;6243379;28;20041;-81
2023/06/09 14:53:37;;;;;;;3.38;3.08;;;32.20;43.00;;;;;;6237149;28;20174;-79
2023/06/09 14:56:39;;;;;;;4.03;3.63;;;32.00;42.90;;;;;;6241658;28;20060;-80
2023/06/09 14:59:42;;;;;;;3.92;2.58;;;31.80;43.30;;;;;;6236135;28;20072;-81
2023/06/09 15:02:44;;;;;;;5.47;3.30;;;32.00;43.30;;;;;;6239382;28;20044;-80
2023/06/09 15:05:46;;;;;;;4.75;3.10;;;32.20;43.40;;;;;;6237882;28;20053;-83
2023/06/09 15:08:52;;;;;;;2.75;2.30;;;32.20;43.20;;;;;;6236718;28;20510;-80
2023/06/09 15:11:53;;;;;;;3.67;3.38;;;32.50;43.00;;;;;;6239538;28;20060;-81
2023/06/09 15:14:56;;;;;;;4.93;3.10;;;32.80;42.30;;;;;;6239326;28;20061;-82
2023/06/09 15:17:59;;;;;;;5.07;2.53;;;33.10;42.20;;;;;;6237493;28;20042;-81
2023/06/09 15:21:01;;;;;;;2.78;2.38;;;33.10;42.30;;;;;;6239443;28;20057;-82
2023/06/09 15:24:03;;;;;;;2.83;2.60;;;32.90;42.50;;;;;;6241397;28;20042;-82
2023/06/09 15:27:06;;;;;;;3.53;2.78;;;32.70;42.10;;;;;;6240059;28;20073;-81
2023/06/09 15:30:10;;;;;;;4.05;3.47;;;32.20;41.90;;;;;;6240869;28;20512;-84
2023/06/09 15:33:13;;;;;;;4.63;3.40;;;31.80;42.30;;;;;;6242844;28;20057;-82
2023/06/09 15:36:15;;;;;;;3.45;3.15;;;31.70;43.10;;;;;;6240142;28;20183;-82
2023/06/09 15:39:16;;;;;;;4.80;2.70;;;31.80;43.20;;;;;;6242068;28;20046;-84
2023/06/09 15:42:18;;;;;;;6.88;3.13;;;32.00;43.00;;;;;;6236759;28;20722;-80
2023/06/09 15:45:21;;;;;;;6.93;3.20;;;32.30;42.70;;;;;;6241165;28;20477;-82
2023/06/09 15:48:24;;;;;;;4.22;3.75;;;32.20;42.00;;;;;;6241941;28;20060;-83
2023/06/09 15:51:26;;;;;;;3.30;3.00;;;32.00;42.60;;;;;;6242349;28;20038;-84
2023/06/09 15:54:28;;;;;;;4.10;2.78;;;32.00;42.90;;;;;;6242088;28;20052;-84